NOZ3747 ENVA-ENZV
Flight info
| Callsign | NOZ3747 |
|---|---|
| Flight time | 1h 3m |
| Altitude | 34000 |
| Route | OSMUM DCT ROPNO |
| Aircraft | B738/M-SDE2E3FGHIRWXY/LB1 |
Departure
| Time | 2026-04-26 19:25 |
|---|---|
| Airport | Trondheim Airport, Værnes (ENVA) |
Arrival
| Time | 2026-04-26 20:28 |
|---|---|
| Airport | Stavanger Airport, Sola (ENZV) |
| Time | Latitude | Longitude | Altitude | Speed | Heading |
|---|---|---|---|---|---|
| 2026-04-26 19:03 | 63.45502 | 10.91578 | 39 ft | 0 kts | 180° |
| 2026-04-26 19:19 | 63.45516 | 10.91578 | 38 ft | 2 kts | 179° |
| 2026-04-26 19:19 | 63.45532 | 10.91578 | 37 ft | 2 kts | 179° |
| 2026-04-26 19:19 | 63.45549 | 10.91578 | 36 ft | 2 kts | 179° |
| 2026-04-26 19:19 | 63.45565 | 10.91577 | 36 ft | 2 kts | 179° |
| 2026-04-26 19:20 | 63.45574 | 10.91577 | 31 ft | 0 kts | 179° |
| 2026-04-26 19:21 | 63.45567 | 10.91594 | 35 ft | 3 kts | 121° |
| 2026-04-26 19:21 | 63.45584 | 10.91687 | 34 ft | 13 kts | 66° |
| 2026-04-26 19:21 | 63.45595 | 10.91951 | 43 ft | 18 kts | 91° |
| 2026-04-26 19:22 | 63.45594 | 10.92250 | 46 ft | 21 kts | 90° |
| 2026-04-26 19:22 | 63.45642 | 10.92418 | 45 ft | 16 kts | 3° |
| 2026-04-26 19:22 | 63.45761 | 10.92497 | 44 ft | 20 kts | 74° |
| 2026-04-26 19:22 | 63.45755 | 10.92837 | 48 ft | 24 kts | 92° |
| 2026-04-26 19:23 | 63.45751 | 10.93268 | 51 ft | 36 kts | 91° |
| 2026-04-26 19:23 | 63.45749 | 10.93837 | 57 ft | 38 kts | 90° |
| 2026-04-26 19:23 | 63.45744 | 10.94145 | 58 ft | 5 kts | 49° |
| 2026-04-26 19:23 | 63.45757 | 10.94082 | 59 ft | 7 kts | 264° |
| 2026-04-26 19:24 | 63.45757 | 10.94059 | 62 ft | 0 kts | 269° |
| 2026-04-26 19:24 | 63.45757 | 10.94029 | 62 ft | 10 kts | 269° |
| 2026-04-26 19:24 | 63.45758 | 10.91321 | 88 ft | 161 kts | 270° |
| 2026-04-26 19:25 | 63.45758 | 10.88605 | 817 ft | 185 kts | 271° |
| 2026-04-26 19:25 | 63.45760 | 10.87665 | 1133 ft | 188 kts | 272° |
| 2026-04-26 19:25 | 63.45770 | 10.83046 | 2638 ft | 167 kts | 273° |
| 2026-04-26 19:25 | 63.45775 | 10.80469 | 3325 ft | 164 kts | 274° |
| 2026-04-26 19:26 | 63.45779 | 10.77924 | 3981 ft | 164 kts | 275° |
| 2026-04-26 19:26 | 63.45783 | 10.75362 | 4649 ft | 165 kts | 274° |
| 2026-04-26 19:26 | 63.45786 | 10.72777 | 5332 ft | 166 kts | 275° |
| 2026-04-26 19:26 | 63.45789 | 10.70199 | 6004 ft | 166 kts | 274° |
| 2026-04-26 19:27 | 63.45789 | 10.67647 | 6645 ft | 166 kts | 274° |
| 2026-04-26 19:27 | 63.45789 | 10.65055 | 7259 ft | 167 kts | 275° |
| 2026-04-26 19:27 | 63.45787 | 10.62439 | 7874 ft | 169 kts | 276° |
| 2026-04-26 19:27 | 63.45785 | 10.59789 | 8515 ft | 171 kts | 276° |
| 2026-04-26 19:28 | 63.45783 | 10.57123 | 9131 ft | 172 kts | 277° |
| 2026-04-26 19:28 | 63.45654 | 10.54432 | 9731 ft | 183 kts | 254° |
| 2026-04-26 19:28 | 63.44760 | 10.52247 | 10245 ft | 206 kts | 210° |
| 2026-04-26 19:28 | 63.43273 | 10.51731 | 10454 ft | 227 kts | 179° |
| 2026-04-26 19:29 | 63.41688 | 10.51861 | 10723 ft | 228 kts | 181° |
| 2026-04-26 19:29 | 63.40119 | 10.51953 | 10932 ft | 230 kts | 176° |
| 2026-04-26 19:29 | 63.38606 | 10.53131 | 11012 ft | 234 kts | 138° |
| 2026-04-26 19:29 | 63.37625 | 10.55972 | 11017 ft | 238 kts | 99° |
| 2026-04-26 19:30 | 63.37445 | 10.59671 | 11242 ft | 243 kts | 81° |
| 2026-04-26 19:30 | 63.37462 | 10.63501 | 11805 ft | 248 kts | 82° |
| 2026-04-26 19:30 | 63.37471 | 10.67344 | 12460 ft | 248 kts | 82° |
| 2026-04-26 19:30 | 63.37473 | 10.68585 | 12667 ft | 248 kts | 82° |
| 2026-04-26 19:31 | 63.37478 | 10.75219 | 13312 ft | 270 kts | 82° |
| 2026-04-26 19:31 | 63.37373 | 10.79512 | 13578 ft | 294 kts | 100° |
| 2026-04-26 19:31 | 63.36373 | 10.83465 | 14430 ft | 296 kts | 134° |
| 2026-04-26 19:31 | 63.34626 | 10.85820 | 15040 ft | 296 kts | 169° |
| 2026-04-26 19:32 | 63.32554 | 10.86353 | 15293 ft | 309 kts | 181° |
| 2026-04-26 19:32 | 63.30332 | 10.86518 | 15458 ft | 329 kts | 182° |
| 2026-04-26 19:32 | 63.27973 | 10.86669 | 15618 ft | 349 kts | 182° |
| 2026-04-26 19:32 | 63.25472 | 10.86877 | 15772 ft | 370 kts | 181° |
| 2026-04-26 19:33 | 63.23740 | 10.87056 | 15871 ft | 382 kts | 180° |
| 2026-04-26 19:33 | 63.21016 | 10.87374 | 16024 ft | 401 kts | 180° |
| 2026-04-26 19:33 | 63.17243 | 10.87830 | 16486 ft | 415 kts | 182° |
| 2026-04-26 19:33 | 63.15305 | 10.87548 | 16836 ft | 412 kts | 196° |
| 2026-04-26 19:34 | 63.12655 | 10.85375 | 17470 ft | 402 kts | 216° |
| 2026-04-26 19:34 | 63.10459 | 10.81715 | 18088 ft | 391 kts | 233° |
| 2026-04-26 19:34 | 63.08757 | 10.77173 | 18657 ft | 389 kts | 239° |
| 2026-04-26 19:34 | 63.07100 | 10.72381 | 19144 ft | 392 kts | 240° |
| 2026-04-26 19:35 | 63.05451 | 10.67561 | 19650 ft | 395 kts | 240° |
| 2026-04-26 19:35 | 63.03776 | 10.62702 | 20173 ft | 398 kts | 240° |
| 2026-04-26 19:35 | 63.02085 | 10.57849 | 20686 ft | 401 kts | 239° |
| 2026-04-26 19:35 | 63.00369 | 10.52972 | 21186 ft | 404 kts | 239° |
| 2026-04-26 19:36 | 62.98656 | 10.48138 | 21660 ft | 407 kts | 239° |
| 2026-04-26 19:36 | 62.97492 | 10.44863 | 21972 ft | 409 kts | 239° |
| 2026-04-26 19:36 | 62.95136 | 10.38261 | 22609 ft | 412 kts | 239° |
| 2026-04-26 19:36 | 62.93355 | 10.33282 | 23093 ft | 415 kts | 239° |
| 2026-04-26 19:37 | 62.91579 | 10.28332 | 23538 ft | 418 kts | 239° |
| 2026-04-26 19:37 | 62.89771 | 10.23295 | 23973 ft | 421 kts | 238° |
| 2026-04-26 19:37 | 62.87992 | 10.18349 | 24340 ft | 423 kts | 238° |
| 2026-04-26 19:37 | 62.86189 | 10.13351 | 24721 ft | 425 kts | 238° |
| 2026-04-26 19:38 | 62.84263 | 10.08373 | 25083 ft | 434 kts | 229° |
| 2026-04-26 19:38 | 62.81724 | 10.04588 | 25413 ft | 450 kts | 212° |
| 2026-04-26 19:38 | 62.78926 | 10.01653 | 25825 ft | 452 kts | 210° |
| 2026-04-26 19:38 | 62.76069 | 9.98779 | 26176 ft | 454 kts | 210° |
| 2026-04-26 19:39 | 62.73181 | 9.95905 | 26501 ft | 457 kts | 210° |
| 2026-04-26 19:39 | 62.70284 | 9.93014 | 26821 ft | 459 kts | 210° |
| 2026-04-26 19:39 | 62.68167 | 9.90887 | 27064 ft | 460 kts | 210° |
| 2026-04-26 19:40 | 62.65784 | 9.88479 | 27328 ft | 461 kts | 210° |
| 2026-04-26 19:40 | 62.62862 | 9.85509 | 27643 ft | 463 kts | 210° |
| 2026-04-26 19:40 | 62.59968 | 9.82559 | 27976 ft | 465 kts | 210° |
| 2026-04-26 19:40 | 62.56999 | 9.79531 | 28294 ft | 467 kts | 210° |
| 2026-04-26 19:41 | 62.54085 | 9.76562 | 28599 ft | 469 kts | 210° |
| 2026-04-26 19:41 | 62.51114 | 9.73540 | 28894 ft | 471 kts | 210° |
| 2026-04-26 19:41 | 62.48139 | 9.70521 | 29202 ft | 473 kts | 210° |
| 2026-04-26 19:41 | 62.46165 | 9.68523 | 29394 ft | 474 kts | 210° |
| 2026-04-26 19:42 | 62.42141 | 9.64459 | 29768 ft | 477 kts | 210° |
| 2026-04-26 19:42 | 62.39131 | 9.61428 | 30047 ft | 478 kts | 210° |
| 2026-04-26 19:42 | 62.36148 | 9.58432 | 30424 ft | 477 kts | 210° |
| 2026-04-26 19:42 | 62.33144 | 9.55426 | 30786 ft | 475 kts | 210° |
| 2026-04-26 19:43 | 62.30154 | 9.52438 | 31121 ft | 473 kts | 209° |
| 2026-04-26 19:43 | 62.27162 | 9.49454 | 31401 ft | 473 kts | 209° |
| 2026-04-26 19:43 | 62.24174 | 9.46478 | 31671 ft | 473 kts | 209° |
| 2026-04-26 19:43 | 62.21184 | 9.43506 | 31994 ft | 472 kts | 209° |
| 2026-04-26 19:44 | 62.18236 | 9.40584 | 32350 ft | 470 kts | 209° |
| 2026-04-26 19:44 | 62.15274 | 9.37654 | 32681 ft | 469 kts | 209° |
| 2026-04-26 19:44 | 62.12313 | 9.34732 | 32982 ft | 468 kts | 209° |
| 2026-04-26 19:44 | 62.09349 | 9.31811 | 33290 ft | 468 kts | 209° |
| 2026-04-26 19:45 | 62.06386 | 9.28899 | 33630 ft | 466 kts | 209° |
| 2026-04-26 19:45 | 62.03447 | 9.26017 | 33961 ft | 465 kts | 209° |
| 2026-04-26 19:45 | 62.00514 | 9.23147 | 34248 ft | 464 kts | 208° |
| 2026-04-26 19:45 | 61.97571 | 9.20273 | 34480 ft | 464 kts | 208° |
| 2026-04-26 19:46 | 61.94645 | 9.17420 | 34715 ft | 463 kts | 208° |
| 2026-04-26 19:46 | 61.91754 | 9.14608 | 34960 ft | 462 kts | 208° |
| 2026-04-26 19:46 | 61.88833 | 9.11773 | 35177 ft | 461 kts | 208° |
| 2026-04-26 19:46 | 61.85914 | 9.08946 | 35372 ft | 461 kts | 208° |
| 2026-04-26 19:47 | 61.82992 | 9.06123 | 35606 ft | 460 kts | 208° |
| 2026-04-26 19:47 | 61.81064 | 9.04263 | 35750 ft | 460 kts | 208° |
| 2026-04-26 19:47 | 61.77166 | 9.00510 | 36032 ft | 459 kts | 208° |
| 2026-04-26 19:47 | 61.74287 | 8.97746 | 36220 ft | 459 kts | 208° |
| 2026-04-26 19:48 | 61.68434 | 8.92139 | 36295 ft | 462 kts | 208° |
| 2026-04-26 19:48 | 61.62591 | 8.86571 | 36286 ft | 458 kts | 208° |
| 2026-04-26 19:49 | 61.56840 | 8.81115 | 36297 ft | 454 kts | 208° |
| 2026-04-26 19:49 | 61.51092 | 8.75680 | 36297 ft | 452 kts | 208° |
| 2026-04-26 19:50 | 61.45357 | 8.70278 | 36293 ft | 451 kts | 208° |
| 2026-04-26 19:50 | 61.39636 | 8.64911 | 36298 ft | 450 kts | 208° |
| 2026-04-26 19:51 | 61.33906 | 8.59557 | 36290 ft | 452 kts | 208° |
| 2026-04-26 19:51 | 61.28180 | 8.54228 | 36288 ft | 454 kts | 207° |
| 2026-04-26 19:52 | 61.22397 | 8.48868 | 36295 ft | 455 kts | 207° |
| 2026-04-26 19:52 | 61.16604 | 8.43522 | 36282 ft | 457 kts | 207° |
| 2026-04-26 19:53 | 61.10780 | 8.38170 | 36283 ft | 458 kts | 207° |
| 2026-04-26 19:53 | 61.04943 | 8.32827 | 36288 ft | 459 kts | 207° |
| 2026-04-26 19:54 | 60.99162 | 8.27556 | 36274 ft | 460 kts | 207° |
| 2026-04-26 19:54 | 60.93313 | 8.22246 | 36279 ft | 459 kts | 207° |
| 2026-04-26 19:55 | 60.87515 | 8.17003 | 36283 ft | 458 kts | 207° |
| 2026-04-26 19:55 | 60.81683 | 8.11749 | 36283 ft | 457 kts | 207° |
| 2026-04-26 19:56 | 60.75868 | 8.06532 | 36281 ft | 456 kts | 207° |
| 2026-04-26 19:56 | 60.70065 | 8.01345 | 36279 ft | 454 kts | 207° |
| 2026-04-26 19:57 | 60.64279 | 7.96194 | 36286 ft | 453 kts | 207° |
| 2026-04-26 19:57 | 60.58538 | 7.91104 | 36282 ft | 452 kts | 206° |
| 2026-04-26 19:58 | 60.52772 | 7.86010 | 36285 ft | 451 kts | 206° |
| 2026-04-26 19:58 | 60.47005 | 7.80936 | 36296 ft | 451 kts | 206° |
| 2026-04-26 19:59 | 60.41249 | 7.75891 | 36293 ft | 451 kts | 206° |
| 2026-04-26 19:59 | 60.38436 | 7.73436 | 36270 ft | 439 kts | 206° |
| 2026-04-26 19:59 | 60.35657 | 7.71018 | 36277 ft | 429 kts | 206° |
| 2026-04-26 20:00 | 60.30289 | 7.66355 | 36280 ft | 412 kts | 207° |
| 2026-04-26 20:00 | 60.24996 | 7.61759 | 36305 ft | 416 kts | 207° |
| 2026-04-26 20:01 | 60.19603 | 7.57084 | 35458 ft | 437 kts | 206° |
| 2026-04-26 20:01 | 60.16812 | 7.54677 | 35022 ft | 434 kts | 206° |
| 2026-04-26 20:01 | 60.14039 | 7.52296 | 34526 ft | 434 kts | 206° |
| 2026-04-26 20:02 | 60.11263 | 7.49917 | 34021 ft | 433 kts | 206° |
| 2026-04-26 20:02 | 60.08496 | 7.47551 | 33476 ft | 432 kts | 206° |
| 2026-04-26 20:02 | 60.05726 | 7.45184 | 32943 ft | 431 kts | 206° |
| 2026-04-26 20:02 | 60.03895 | 7.43623 | 32600 ft | 431 kts | 206° |
| 2026-04-26 20:03 | 60.00210 | 7.40483 | 31903 ft | 430 kts | 206° |
| 2026-04-26 20:03 | 59.97452 | 7.38138 | 31356 ft | 430 kts | 206° |
| 2026-04-26 20:03 | 59.94715 | 7.35812 | 30603 ft | 436 kts | 207° |
| 2026-04-26 20:03 | 59.91907 | 7.33429 | 29796 ft | 440 kts | 207° |
| 2026-04-26 20:04 | 59.89071 | 7.31027 | 28961 ft | 443 kts | 207° |
| 2026-04-26 20:04 | 59.86222 | 7.28622 | 28143 ft | 446 kts | 207° |
| 2026-04-26 20:04 | 59.83355 | 7.26206 | 27343 ft | 448 kts | 207° |
| 2026-04-26 20:04 | 59.80475 | 7.23785 | 26568 ft | 449 kts | 207° |
| 2026-04-26 20:05 | 59.77595 | 7.21370 | 25815 ft | 450 kts | 207° |
| 2026-04-26 20:05 | 59.74745 | 7.18983 | 25080 ft | 451 kts | 207° |
| 2026-04-26 20:05 | 59.71847 | 7.16559 | 24186 ft | 452 kts | 207° |
| 2026-04-26 20:05 | 59.68938 | 7.14129 | 22822 ft | 453 kts | 207° |
| 2026-04-26 20:06 | 59.66025 | 7.11703 | 21495 ft | 452 kts | 207° |
| 2026-04-26 20:06 | 59.63131 | 7.09298 | 20215 ft | 450 kts | 207° |
| 2026-04-26 20:06 | 59.60251 | 7.06910 | 19071 ft | 447 kts | 206° |
| 2026-04-26 20:06 | 59.57404 | 7.04555 | 17893 ft | 441 kts | 206° |
| 2026-04-26 20:07 | 59.54654 | 7.02284 | 17319 ft | 424 kts | 206° |
| 2026-04-26 20:07 | 59.52013 | 7.00113 | 16830 ft | 401 kts | 206° |
| 2026-04-26 20:07 | 59.49370 | 6.97930 | 14826 ft | 423 kts | 206° |
| 2026-04-26 20:07 | 59.46640 | 6.95672 | 13732 ft | 422 kts | 205° |
| 2026-04-26 20:08 | 59.44004 | 6.93509 | 13496 ft | 396 kts | 205° |
| 2026-04-26 20:08 | 59.41518 | 6.91475 | 12769 ft | 384 kts | 206° |
| 2026-04-26 20:08 | 59.39042 | 6.89440 | 11577 ft | 388 kts | 205° |
| 2026-04-26 20:08 | 59.36571 | 6.87416 | 10586 ft | 388 kts | 205° |
| 2026-04-26 20:09 | 59.34173 | 6.85445 | 10502 ft | 361 kts | 207° |
| 2026-04-26 20:09 | 59.32093 | 6.83016 | 10298 ft | 337 kts | 222° |
| 2026-04-26 20:09 | 59.30386 | 6.80064 | 10020 ft | 320 kts | 226° |
| 2026-04-26 20:09 | 59.28778 | 6.77186 | 9746 ft | 308 kts | 226° |
| 2026-04-26 20:10 | 59.27226 | 6.74405 | 9460 ft | 297 kts | 226° |
| 2026-04-26 20:10 | 59.25727 | 6.71728 | 9181 ft | 287 kts | 226° |
| 2026-04-26 20:10 | 59.24271 | 6.69138 | 8897 ft | 278 kts | 226° |
| 2026-04-26 20:10 | 59.22858 | 6.66632 | 8633 ft | 271 kts | 226° |
| 2026-04-26 20:11 | 59.21474 | 6.64184 | 8375 ft | 266 kts | 226° |
| 2026-04-26 20:11 | 59.20133 | 6.61821 | 8259 ft | 251 kts | 226° |
| 2026-04-26 20:11 | 59.18879 | 6.59620 | 8097 ft | 235 kts | 226° |
| 2026-04-26 20:12 | 59.16588 | 6.55598 | 7660 ft | 217 kts | 226° |
| 2026-04-26 20:12 | 59.15469 | 6.53632 | 7406 ft | 216 kts | 226° |
| 2026-04-26 20:12 | 59.14349 | 6.51666 | 7172 ft | 216 kts | 226° |
| 2026-04-26 20:12 | 59.13218 | 6.49681 | 6923 ft | 221 kts | 226° |
| 2026-04-26 20:13 | 59.12071 | 6.47670 | 6676 ft | 222 kts | 225° |
| 2026-04-26 20:13 | 59.10938 | 6.45688 | 6422 ft | 221 kts | 225° |
| 2026-04-26 20:13 | 59.09776 | 6.43660 | 6169 ft | 222 kts | 225° |
| 2026-04-26 20:13 | 59.08649 | 6.41695 | 5890 ft | 219 kts | 225° |
| 2026-04-26 20:14 | 59.07522 | 6.39735 | 5641 ft | 216 kts | 224° |
| 2026-04-26 20:14 | 59.06404 | 6.37795 | 5370 ft | 214 kts | 224° |
| 2026-04-26 20:14 | 59.05332 | 6.35931 | 5136 ft | 212 kts | 224° |
| 2026-04-26 20:14 | 59.04248 | 6.34047 | 4861 ft | 213 kts | 224° |
| 2026-04-26 20:15 | 59.03147 | 6.32138 | 4598 ft | 211 kts | 224° |
| 2026-04-26 20:15 | 59.02050 | 6.30236 | 4350 ft | 211 kts | 223° |
| 2026-04-26 20:15 | 59.01066 | 6.28536 | 4086 ft | 209 kts | 223° |
| 2026-04-26 20:15 | 59.00000 | 6.26690 | 3826 ft | 206 kts | 223° |
| 2026-04-26 20:16 | 58.98933 | 6.24845 | 3573 ft | 204 kts | 223° |
| 2026-04-26 20:16 | 58.97874 | 6.23016 | 3330 ft | 204 kts | 222° |
| 2026-04-26 20:16 | 58.96813 | 6.21188 | 3077 ft | 204 kts | 223° |
| 2026-04-26 20:16 | 58.95762 | 6.19376 | 3007 ft | 201 kts | 223° |
| 2026-04-26 20:17 | 58.94715 | 6.17571 | 3001 ft | 202 kts | 223° |
| 2026-04-26 20:17 | 58.93658 | 6.15752 | 2993 ft | 204 kts | 222° |
| 2026-04-26 20:17 | 58.92612 | 6.13952 | 2993 ft | 203 kts | 223° |
| 2026-04-26 20:17 | 58.91900 | 6.12730 | 2993 ft | 201 kts | 223° |
| 2026-04-26 20:18 | 58.90537 | 6.10391 | 2997 ft | 194 kts | 223° |
| 2026-04-26 20:18 | 58.89550 | 6.08698 | 2988 ft | 185 kts | 223° |
| 2026-04-26 20:18 | 58.88585 | 6.07044 | 2996 ft | 186 kts | 223° |
| 2026-04-26 20:18 | 58.87619 | 6.05389 | 2997 ft | 184 kts | 223° |
| 2026-04-26 20:19 | 58.86670 | 6.03764 | 2993 ft | 185 kts | 223° |
| 2026-04-26 20:19 | 58.85708 | 6.02120 | 2984 ft | 184 kts | 223° |
| 2026-04-26 20:19 | 58.84753 | 6.00488 | 2985 ft | 183 kts | 223° |
| 2026-04-26 20:19 | 58.83803 | 5.98865 | 2977 ft | 181 kts | 223° |
| 2026-04-26 20:20 | 58.82858 | 5.97250 | 2997 ft | 183 kts | 223° |
| 2026-04-26 20:20 | 58.81888 | 5.95595 | 3012 ft | 188 kts | 223° |
| 2026-04-26 20:20 | 58.81239 | 5.94491 | 2984 ft | 187 kts | 223° |
| 2026-04-26 20:20 | 58.80274 | 5.92851 | 2997 ft | 184 kts | 223° |
| 2026-04-26 20:21 | 58.79003 | 5.90687 | 2991 ft | 183 kts | 224° |
| 2026-04-26 20:21 | 58.78372 | 5.89614 | 2982 ft | 183 kts | 224° |
| 2026-04-26 20:21 | 58.77422 | 5.87999 | 2996 ft | 183 kts | 224° |
| 2026-04-26 20:21 | 58.76477 | 5.86393 | 2985 ft | 178 kts | 224° |
| 2026-04-26 20:22 | 58.75553 | 5.84825 | 2990 ft | 176 kts | 224° |
| 2026-04-26 20:22 | 58.74631 | 5.83264 | 2997 ft | 177 kts | 224° |
| 2026-04-26 20:22 | 58.73704 | 5.81695 | 2983 ft | 177 kts | 224° |
| 2026-04-26 20:22 | 58.72780 | 5.80132 | 2988 ft | 176 kts | 224° |
| 2026-04-26 20:23 | 58.71876 | 5.78605 | 2992 ft | 174 kts | 224° |
| 2026-04-26 20:23 | 58.71175 | 5.76785 | 2971 ft | 169 kts | 261° |
| 2026-04-26 20:23 | 58.71317 | 5.74617 | 3005 ft | 165 kts | 295° |
| 2026-04-26 20:23 | 58.71706 | 5.72508 | 2912 ft | 167 kts | 292° |
| 2026-04-26 20:24 | 58.72072 | 5.70422 | 2888 ft | 162 kts | 292° |
| 2026-04-26 20:24 | 58.72437 | 5.68362 | 2902 ft | 163 kts | 293° |
| 2026-04-26 20:24 | 58.72831 | 5.66320 | 2892 ft | 162 kts | 304° |
| 2026-04-26 20:24 | 58.73623 | 5.64926 | 2912 ft | 157 kts | 330° |
| 2026-04-26 20:25 | 58.74649 | 5.64273 | 2886 ft | 155 kts | 358° |
| 2026-04-26 20:25 | 58.75383 | 5.64264 | 2815 ft | 159 kts | 358° |
| 2026-04-26 20:25 | 58.76935 | 5.64127 | 2059 ft | 167 kts | 358° |
| 2026-04-26 20:25 | 58.78045 | 5.64075 | 1820 ft | 151 kts | 358° |
| 2026-04-26 20:26 | 58.79071 | 5.64041 | 1627 ft | 148 kts | 358° |
| 2026-04-26 20:26 | 58.80105 | 5.64008 | 1436 ft | 152 kts | 358° |
| 2026-04-26 20:26 | 58.81140 | 5.63976 | 1293 ft | 144 kts | 358° |
| 2026-04-26 20:26 | 58.82144 | 5.63942 | 1071 ft | 148 kts | 358° |
| 2026-04-26 20:27 | 58.83192 | 5.63977 | 869 ft | 151 kts | 359° |
| 2026-04-26 20:27 | 58.84243 | 5.63942 | 691 ft | 152 kts | 356° |
| 2026-04-26 20:27 | 58.85311 | 5.63877 | 461 ft | 153 kts | 356° |
| 2026-04-26 20:27 | 58.86382 | 5.63828 | 241 ft | 155 kts | 359° |
| 2026-04-26 20:28 | 58.87443 | 5.63803 | 50 ft | 149 kts | 0° |
| 2026-04-26 20:28 | 58.88356 | 5.63760 | 30 ft | 105 kts | 360° |
| 2026-04-26 20:28 | 58.88696 | 5.63715 | 27 ft | 19 kts | 313° |
| 2026-04-26 20:28 | 58.88708 | 5.63498 | 31 ft | 0 kts | 268° |
| 2026-04-26 20:29 | 58.88696 | 5.63442 | 30 ft | 11 kts | 227° |
| 2026-04-26 20:29 | 58.88576 | 5.63420 | 30 ft | 25 kts | 179° |
| 2026-04-26 20:29 | 58.88439 | 5.63308 | 28 ft | 24 kts | 252° |
| 2026-04-26 20:30 | 58.88474 | 5.63034 | 26 ft | 23 kts | 316° |
| 2026-04-26 20:30 | 58.88531 | 5.62850 | 24 ft | 14 kts | 257° |
| 2026-04-26 20:30 | 58.88502 | 5.62723 | 26 ft | 0 kts | 230° |
| 2026-04-26 20:42 | 58.88512 | 5.62746 | 29 ft | 2 kts | 230° |
| 2026-04-26 20:42 | 58.88523 | 5.62771 | 28 ft | 2 kts | 230° |
| 2026-04-26 20:42 | 58.88531 | 5.62790 | 27 ft | 0 kts | 230° |
| 2026-04-26 20:44 | 58.88528 | 5.62785 | 27 ft | 3 kts | 219° |
| 2026-04-26 20:44 | 58.88485 | 5.62807 | 26 ft | 11 kts | 126° |
| 2026-04-26 20:44 | 58.88470 | 5.63003 | 26 ft | 18 kts | 110° |
| 2026-04-26 20:45 | 58.88379 | 5.63217 | 28 ft | 22 kts | 153° |
| 2026-04-26 20:45 | 58.88274 | 5.63367 | 30 ft | 15 kts | 106° |
| 2026-04-26 20:45 | 58.88192 | 5.63431 | 29 ft | 17 kts | 179° |
| 2026-04-26 20:45 | 58.88037 | 5.63430 | 30 ft | 25 kts | 187° |
| 2026-04-26 20:46 | 58.87865 | 5.63302 | 30 ft | 31 kts | 199° |
| 2026-04-26 20:46 | 58.87635 | 5.63295 | 30 ft | 35 kts | 178° |
| 2026-04-26 20:46 | 58.87399 | 5.63301 | 30 ft | 28 kts | 178° |
| 2026-04-26 20:46 | 58.87192 | 5.63307 | 31 ft | 31 kts | 180° |
| 2026-04-26 20:47 | 58.87000 | 5.63418 | 31 ft | 30 kts | 111° |
| 2026-04-26 20:47 | 58.87039 | 5.63666 | 35 ft | 29 kts | 62° |
| 2026-04-26 20:47 | 58.87256 | 5.63792 | 33 ft | 50 kts | 359° |
| 2026-04-26 20:47 | 58.87955 | 5.63775 | 53 ft | 145 kts | 359° |
| 2026-04-26 20:48 | 58.88987 | 5.63769 | 881 ft | 144 kts | 358° |
| 2026-04-26 20:48 | 58.89942 | 5.63760 | 1750 ft | 132 kts | 359° |
| 2026-04-26 20:48 | 58.90841 | 5.63725 | 2456 ft | 132 kts | 359° |
| 2026-04-26 20:48 | 58.91774 | 5.63678 | 3160 ft | 135 kts | 359° |
| 2026-04-26 20:49 | 58.92746 | 5.63632 | 3751 ft | 153 kts | 359° |
| 2026-04-26 20:49 | 58.93938 | 5.63595 | 4104 ft | 189 kts | 358° |
| 2026-04-26 20:49 | 58.95356 | 5.63554 | 4386 ft | 217 kts | 358° |
| 2026-04-26 20:49 | 58.96904 | 5.63511 | 4864 ft | 230 kts | 358° |
| 2026-04-26 20:50 | 58.98525 | 5.63466 | 5532 ft | 235 kts | 358° |
| 2026-04-26 20:50 | 59.00175 | 5.63420 | 6230 ft | 239 kts | 358° |
| 2026-04-26 20:50 | 59.01846 | 5.63373 | 6989 ft | 240 kts | 357° |
| 2026-04-26 20:50 | 59.03521 | 5.63341 | 7713 ft | 241 kts | 0° |
| 2026-04-26 20:51 | 59.05156 | 5.64188 | 8418 ft | 248 kts | 24° |
| 2026-04-26 20:51 | 59.06535 | 5.66280 | 9127 ft | 258 kts | 46° |
| 2026-04-26 20:51 | 59.07421 | 5.69371 | 9642 ft | 279 kts | 66° |
| 2026-04-26 20:51 | 59.07720 | 5.73255 | 10169 ft | 303 kts | 89° |
| 2026-04-26 20:52 | 59.07154 | 5.77250 | 10952 ft | 314 kts | 118° |
| 2026-04-26 20:52 | 59.05700 | 5.80418 | 11756 ft | 321 kts | 146° |
| 2026-04-26 20:52 | 59.03578 | 5.82068 | 12020 ft | 341 kts | 176° |
| 2026-04-26 20:52 | 59.01133 | 5.82165 | 12316 ft | 360 kts | 184° |
| 2026-04-26 20:53 | 58.98595 | 5.82095 | 12960 ft | 369 kts | 183° |
| 2026-04-26 20:53 | 58.96047 | 5.82538 | 13757 ft | 378 kts | 166° |
| 2026-04-26 20:53 | 58.93696 | 5.84823 | 14587 ft | 383 kts | 142° |
| 2026-04-26 20:53 | 58.91926 | 5.88692 | 15333 ft | 388 kts | 120° |
| 2026-04-26 20:54 | 58.90992 | 5.93591 | 16024 ft | 391 kts | 98° |
| 2026-04-26 20:54 | 58.90949 | 5.98862 | 16690 ft | 393 kts | 83° |
| 2026-04-26 20:54 | 58.91193 | 6.04178 | 17383 ft | 397 kts | 82° |
| 2026-04-26 20:54 | 58.91457 | 6.09465 | 18044 ft | 402 kts | 82° |
| 2026-04-26 20:55 | 58.91711 | 6.14909 | 18722 ft | 407 kts | 83° |
| 2026-04-26 20:55 | 58.91943 | 6.20384 | 19305 ft | 411 kts | 83° |
| 2026-04-26 20:55 | 58.92161 | 6.25959 | 19912 ft | 415 kts | 83° |
| 2026-04-26 20:55 | 58.92436 | 6.31537 | 20469 ft | 417 kts | 76° |
| 2026-04-26 20:56 | 58.93407 | 6.36778 | 20946 ft | 414 kts | 56° |
| 2026-04-26 20:56 | 58.94952 | 6.41469 | 21607 ft | 413 kts | 52° |
| 2026-04-26 20:56 | 58.96559 | 6.46097 | 22198 ft | 416 kts | 51° |
| 2026-04-26 20:56 | 58.98190 | 6.50783 | 22748 ft | 420 kts | 51° |
| 2026-04-26 20:57 | 58.99820 | 6.55527 | 23289 ft | 425 kts | 52° |
| 2026-04-26 20:57 | 59.01431 | 6.60276 | 23825 ft | 428 kts | 52° |
| 2026-04-26 20:57 | 59.03066 | 6.65147 | 24273 ft | 432 kts | 52° |
| 2026-04-26 20:57 | 59.04703 | 6.70055 | 24768 ft | 433 kts | 52° |
| 2026-04-26 20:58 | 59.06344 | 6.74983 | 25249 ft | 436 kts | 52° |
| 2026-04-26 20:58 | 59.08003 | 6.79966 | 25270 ft | 440 kts | 52° |
| 2026-04-26 20:58 | 59.09641 | 6.85018 | 25293 ft | 440 kts | 57° |
| 2026-04-26 20:58 | 59.10688 | 6.90556 | 25305 ft | 445 kts | 75° |
| 2026-04-26 20:59 | 59.11216 | 6.96520 | 25311 ft | 448 kts | 77° |
| 2026-04-26 20:59 | 59.11697 | 7.02538 | 25314 ft | 449 kts | 78° |
| 2026-04-26 20:59 | 59.12179 | 7.08566 | 25308 ft | 450 kts | 77° |
| 2026-04-26 20:59 | 59.12675 | 7.14586 | 25298 ft | 450 kts | 77° |
| 2026-04-26 21:00 | 59.13187 | 7.20622 | 25302 ft | 450 kts | 77° |
| 2026-04-26 21:00 | 59.13703 | 7.26626 | 25297 ft | 449 kts | 77° |
| 2026-04-26 21:00 | 59.14220 | 7.32622 | 25297 ft | 448 kts | 77° |
| 2026-04-26 21:00 | 59.14729 | 7.38547 | 25298 ft | 448 kts | 77° |
| 2026-04-26 21:01 | 59.15239 | 7.44526 | 25298 ft | 447 kts | 77° |
| 2026-04-26 21:01 | 59.15744 | 7.50501 | 25280 ft | 446 kts | 77° |
| 2026-04-26 21:01 | 59.16246 | 7.56472 | 25307 ft | 445 kts | 77° |
| 2026-04-26 21:01 | 59.16748 | 7.62440 | 25288 ft | 445 kts | 77° |
| 2026-04-26 21:02 | 59.17246 | 7.68383 | 25299 ft | 445 kts | 77° |
| 2026-04-26 21:02 | 59.17744 | 7.74354 | 25297 ft | 445 kts | 77° |
| 2026-04-26 21:02 | 59.18240 | 7.80331 | 25299 ft | 446 kts | 77° |
| 2026-04-26 21:02 | 59.18727 | 7.86235 | 25306 ft | 446 kts | 77° |
| 2026-04-26 21:03 | 59.19217 | 7.92222 | 25303 ft | 446 kts | 77° |
| 2026-04-26 21:03 | 59.19705 | 7.98213 | 25299 ft | 446 kts | 77° |
| 2026-04-26 21:03 | 59.20189 | 8.04193 | 25294 ft | 446 kts | 77° |
| 2026-04-26 21:03 | 59.20670 | 8.10182 | 25296 ft | 446 kts | 77° |
| 2026-04-26 21:04 | 59.21144 | 8.16108 | 25305 ft | 446 kts | 77° |
| 2026-04-26 21:04 | 59.21619 | 8.22093 | 25300 ft | 446 kts | 77° |
| 2026-04-26 21:04 | 59.22093 | 8.28087 | 25296 ft | 445 kts | 77° |
| 2026-04-26 21:04 | 59.22562 | 8.34068 | 25287 ft | 445 kts | 77° |
| 2026-04-26 21:05 | 59.23023 | 8.39972 | 25294 ft | 444 kts | 78° |
| 2026-04-26 21:05 | 59.23486 | 8.45938 | 25284 ft | 444 kts | 78° |
| 2026-04-26 21:05 | 59.23946 | 8.51917 | 25285 ft | 443 kts | 78° |
| 2026-04-26 21:05 | 59.24406 | 8.57914 | 25289 ft | 444 kts | 78° |
| 2026-04-26 21:06 | 59.24855 | 8.63813 | 25276 ft | 444 kts | 78° |
| 2026-04-26 21:06 | 59.25305 | 8.69766 | 25272 ft | 439 kts | 78° |
| 2026-04-26 21:06 | 59.25741 | 8.75606 | 25266 ft | 428 kts | 78° |
| 2026-04-26 21:06 | 59.26170 | 8.81364 | 25284 ft | 425 kts | 78° |
| 2026-04-26 21:07 | 59.26590 | 8.87007 | 25290 ft | 426 kts | 78° |
| 2026-04-26 21:07 | 59.27015 | 8.92743 | 25230 ft | 427 kts | 78° |
| 2026-04-26 21:07 | 59.27439 | 8.98513 | 24830 ft | 425 kts | 78° |
| 2026-04-26 21:07 | 59.27855 | 9.04217 | 24359 ft | 422 kts | 78° |
| 2026-04-26 21:08 | 59.28126 | 9.07970 | 24057 ft | 419 kts | 78° |
| 2026-04-26 21:08 | 59.28533 | 9.13613 | 23528 ft | 417 kts | 78° |
| 2026-04-26 21:08 | 59.28934 | 9.19214 | 22966 ft | 414 kts | 78° |
| 2026-04-26 21:08 | 59.29330 | 9.24779 | 22466 ft | 411 kts | 78° |
| 2026-04-26 21:09 | 59.29722 | 9.30308 | 21968 ft | 407 kts | 78° |
| 2026-04-26 21:09 | 59.30101 | 9.35705 | 21473 ft | 404 kts | 78° |
| 2026-04-26 21:09 | 59.30481 | 9.41133 | 20990 ft | 401 kts | 78° |
| 2026-04-26 21:09 | 59.30857 | 9.46525 | 20511 ft | 399 kts | 78° |
| 2026-04-26 21:10 | 59.31228 | 9.51895 | 20027 ft | 396 kts | 78° |
| 2026-04-26 21:10 | 59.31595 | 9.57224 | 19630 ft | 392 kts | 78° |
| 2026-04-26 21:10 | 59.31950 | 9.62439 | 19483 ft | 381 kts | 78° |
| 2026-04-26 21:10 | 59.32294 | 9.67521 | 19301 ft | 371 kts | 78° |
| 2026-04-26 21:11 | 59.32781 | 9.72393 | 19124 ft | 356 kts | 64° |
| 2026-04-26 21:11 | 59.33930 | 9.76485 | 18857 ft | 341 kts | 46° |
| 2026-04-26 21:11 | 59.35595 | 9.79687 | 18502 ft | 331 kts | 34° |
| 2026-04-26 21:11 | 59.37361 | 9.82520 | 18116 ft | 325 kts | 33° |
| 2026-04-26 21:12 | 59.39133 | 9.85271 | 17726 ft | 323 kts | 33° |
| 2026-04-26 21:12 | 59.40896 | 9.88008 | 17366 ft | 322 kts | 33° |
| 2026-04-26 21:12 | 59.42642 | 9.90742 | 17000 ft | 320 kts | 33° |
| 2026-04-26 21:12 | 59.44373 | 9.93478 | 16645 ft | 319 kts | 33° |
| 2026-04-26 21:13 | 59.46094 | 9.96215 | 16296 ft | 317 kts | 34° |
| 2026-04-26 21:13 | 59.47778 | 9.98906 | 15946 ft | 315 kts | 34° |
| 2026-04-26 21:13 | 59.49478 | 10.01633 | 15598 ft | 314 kts | 34° |
| 2026-04-26 21:13 | 59.51169 | 10.04350 | 15247 ft | 313 kts | 34° |
| 2026-04-26 21:14 | 59.52853 | 10.07061 | 14900 ft | 311 kts | 34° |
| 2026-04-26 21:14 | 59.54514 | 10.09738 | 14554 ft | 310 kts | 34° |
| 2026-04-26 21:14 | 59.56185 | 10.12436 | 14212 ft | 310 kts | 34° |
| 2026-04-26 21:14 | 59.57852 | 10.15129 | 13841 ft | 309 kts | 34° |
| 2026-04-26 21:15 | 59.59513 | 10.17817 | 13455 ft | 308 kts | 34° |
| 2026-04-26 21:15 | 59.61162 | 10.20490 | 13092 ft | 305 kts | 34° |
| 2026-04-26 21:15 | 59.62780 | 10.23120 | 12733 ft | 296 kts | 35° |
| 2026-04-26 21:15 | 59.64324 | 10.25628 | 12415 ft | 287 kts | 35° |
| 2026-04-26 21:16 | 59.65847 | 10.28103 | 12093 ft | 279 kts | 35° |
| 2026-04-26 21:16 | 59.67325 | 10.30507 | 11780 ft | 271 kts | 35° |
| 2026-04-26 21:16 | 59.68742 | 10.32815 | 11675 ft | 258 kts | 34° |
| 2026-04-26 21:16 | 59.70096 | 10.35020 | 11572 ft | 244 kts | 34° |
| 2026-04-26 21:17 | 59.71358 | 10.37084 | 11465 ft | 226 kts | 34° |
| 2026-04-26 21:17 | 59.72533 | 10.39007 | 11356 ft | 211 kts | 34° |
| 2026-04-26 21:17 | 59.73643 | 10.40821 | 11272 ft | 203 kts | 34° |
| 2026-04-26 21:17 | 59.74707 | 10.42561 | 11102 ft | 201 kts | 34° |
| 2026-04-26 21:18 | 59.75780 | 10.44324 | 10905 ft | 199 kts | 34° |
| 2026-04-26 21:18 | 59.76846 | 10.46081 | 10674 ft | 199 kts | 34° |
| 2026-04-26 21:18 | 59.77911 | 10.47839 | 10399 ft | 200 kts | 34° |
| 2026-04-26 21:18 | 59.79037 | 10.49690 | 9623 ft | 216 kts | 35° |
| 2026-04-26 21:19 | 59.80154 | 10.51540 | 9390 ft | 208 kts | 36° |
| 2026-04-26 21:19 | 59.81260 | 10.53374 | 9096 ft | 204 kts | 36° |
| 2026-04-26 21:19 | 59.82344 | 10.55174 | 8824 ft | 200 kts | 36° |
| 2026-04-26 21:19 | 59.83406 | 10.56937 | 8543 ft | 197 kts | 36° |
| 2026-04-26 21:20 | 59.84451 | 10.58674 | 8276 ft | 194 kts | 36° |
| 2026-04-26 21:20 | 59.85468 | 10.60365 | 8009 ft | 191 kts | 36° |
| 2026-04-26 21:20 | 59.86483 | 10.62054 | 7745 ft | 189 kts | 37° |
| 2026-04-26 21:20 | 59.87496 | 10.63740 | 7487 ft | 189 kts | 37° |
| 2026-04-26 21:21 | 59.88503 | 10.65418 | 7235 ft | 188 kts | 37° |
| 2026-04-26 21:21 | 59.89506 | 10.67091 | 6989 ft | 188 kts | 37° |
| 2026-04-26 21:21 | 59.90508 | 10.68762 | 6735 ft | 188 kts | 38° |
| 2026-04-26 21:21 | 59.91495 | 10.70410 | 6481 ft | 188 kts | 38° |
| 2026-04-26 21:22 | 59.92496 | 10.72083 | 6214 ft | 188 kts | 38° |
| 2026-04-26 21:22 | 59.93497 | 10.73757 | 5948 ft | 187 kts | 38° |
| 2026-04-26 21:22 | 59.94496 | 10.75430 | 5716 ft | 185 kts | 38° |
| 2026-04-26 21:23 | 59.96405 | 10.78632 | 5736 ft | 176 kts | 38° |
| 2026-04-26 21:23 | 59.97281 | 10.80287 | 5692 ft | 174 kts | 56° |
| 2026-04-26 21:23 | 59.97628 | 10.82597 | 5633 ft | 177 kts | 75° |
| 2026-04-26 21:23 | 59.97931 | 10.85029 | 5371 ft | 180 kts | 73° |
| 2026-04-26 21:24 | 59.98235 | 10.87403 | 5143 ft | 176 kts | 73° |
| 2026-04-26 21:24 | 59.98532 | 10.89757 | 4917 ft | 172 kts | 73° |
| 2026-04-26 21:24 | 59.98821 | 10.92058 | 4715 ft | 169 kts | 73° |
| 2026-04-26 21:24 | 59.99115 | 10.94340 | 4525 ft | 172 kts | 68° |
| 2026-04-26 21:25 | 59.99827 | 10.96339 | 4340 ft | 181 kts | 36° |
| 2026-04-26 21:25 | 60.00990 | 10.97313 | 4120 ft | 182 kts | 15° |
| 2026-04-26 21:25 | 60.02181 | 10.97972 | 3944 ft | 176 kts | 15° |
| 2026-04-26 21:25 | 60.03353 | 10.98639 | 3736 ft | 176 kts | 16° |
| 2026-04-26 21:26 | 60.04542 | 10.99323 | 3506 ft | 180 kts | 16° |
| 2026-04-26 21:26 | 60.05745 | 11.00018 | 3265 ft | 179 kts | 17° |
| 2026-04-26 21:26 | 60.06938 | 11.00707 | 3032 ft | 178 kts | 17° |
| 2026-04-26 21:26 | 60.08132 | 11.01395 | 2778 ft | 176 kts | 17° |
| 2026-04-26 21:27 | 60.09298 | 11.02068 | 2551 ft | 172 kts | 17° |
| 2026-04-26 21:27 | 60.10410 | 11.02716 | 2368 ft | 164 kts | 18° |
| 2026-04-26 21:27 | 60.11489 | 11.03392 | 2151 ft | 162 kts | 19° |
| 2026-04-26 21:27 | 60.12568 | 11.04106 | 1910 ft | 163 kts | 19° |
| 2026-04-26 21:28 | 60.13662 | 11.04736 | 1582 ft | 165 kts | 14° |
| 2026-04-26 21:28 | 60.14727 | 11.05173 | 1412 ft | 158 kts | 12° |
| 2026-04-26 21:28 | 60.15772 | 11.05684 | 1207 ft | 153 kts | 15° |
| 2026-04-26 21:28 | 60.16767 | 11.06336 | 1003 ft | 150 kts | 20° |
| 2026-04-26 21:29 | 60.17752 | 11.06968 | 816 ft | 145 kts | 15° |
| 2026-04-26 21:29 | 60.18725 | 11.07497 | 663 ft | 140 kts | 16° |
| 2026-04-26 21:29 | 60.19501 | 11.07943 | 669 ft | 90 kts | 17° |
| 2026-04-26 21:29 | 60.19903 | 11.08185 | 671 ft | 32 kts | 18° |
| 2026-04-26 21:30 | 60.19906 | 11.08386 | 672 ft | 17 kts | 124° |
| 2026-04-26 21:30 | 60.19893 | 11.08448 | 670 ft | 0 kts | 105° |
| 2026-04-26 21:30 | 60.19875 | 11.08575 | 674 ft | 18 kts | 105° |
| 2026-04-26 21:31 | 60.19833 | 11.08876 | 675 ft | 28 kts | 106° |
| 2026-04-26 21:31 | 60.19760 | 11.09045 | 678 ft | 13 kts | 170° |
| 2026-04-26 21:31 | 60.19702 | 11.09266 | 681 ft | 24 kts | 105° |
| 2026-04-26 21:31 | 60.19653 | 11.09594 | 681 ft | 12 kts | 115° |
| 2026-04-26 21:32 | 60.19570 | 11.09594 | 681 ft | 14 kts | 195° |
| 2026-04-26 21:32 | 60.19547 | 11.09581 | 681 ft | 0 kts | 195° |